createdAt,value
2016-07-15T00:00:56.906Z,14.72
2016-07-15T00:01:56.900Z,14.8
2016-07-15T00:02:56.896Z,14.78
2016-07-15T00:03:56.902Z,14.68
2016-07-15T00:04:56.891Z,14.65
2016-07-15T00:05:56.888Z,14.64
2016-07-15T00:06:56.887Z,14.72
2016-07-15T00:07:56.883Z,14.64
2016-07-15T00:08:56.883Z,14.62
2016-07-15T00:09:56.877Z,14.73
2016-07-15T00:10:56.874Z,14.68
2016-07-15T00:11:56.868Z,14.7
2016-07-15T00:12:56.871Z,14.72
2016-07-15T00:13:56.866Z,14.68
2016-07-15T00:14:56.856Z,14.72
2016-07-15T00:15:56.861Z,14.73
2016-07-15T00:16:57.857Z,14.72
2016-07-15T00:17:57.858Z,14.77
2016-07-15T00:18:57.398Z,14.72
2016-07-15T00:19:56.844Z,14.64
2016-07-15T00:20:57.258Z,14.73
2016-07-15T00:21:56.842Z,14.68
2016-07-15T00:22:56.839Z,14.7
2016-07-15T00:23:56.841Z,14.68
2016-07-15T00:24:56.830Z,14.64
2016-07-15T00:25:56.834Z,14.61
2016-07-15T00:26:58.021Z,14.64
2016-07-15T00:28:58.330Z,14.62
2016-07-15T00:29:59.505Z,14.62
2016-07-15T00:30:59.202Z,14.68
2016-07-15T00:31:57.196Z,14.64
2016-07-15T00:32:57.975Z,14.69
2016-07-15T00:33:56.850Z,14.61
2016-07-15T00:34:56.804Z,14.68
2016-07-15T00:35:56.800Z,14.64
2016-07-15T00:36:57.788Z,14.7
2016-07-15T00:38:57.705Z,14.72
2016-07-15T00:39:57.758Z,14.75
2016-07-15T00:40:56.779Z,14.78
2016-07-15T00:41:57.732Z,14.78
2016-07-15T00:42:56.780Z,14.68
2016-07-15T00:43:56.767Z,14.73
2016-07-15T00:44:56.764Z,14.72
2016-07-15T00:45:56.767Z,14.78
2016-07-15T00:46:56.755Z,14.7
2016-07-15T00:47:56.759Z,14.73
2016-07-15T00:48:56.756Z,14.65
2016-07-15T00:49:56.751Z,14.7
2016-07-15T00:50:56.747Z,14.73
2016-07-15T00:51:56.748Z,14.7
2016-07-15T00:52:56.738Z,14.73
2016-07-15T00:53:56.743Z,14.73
2016-07-15T00:54:56.738Z,14.68
2016-07-15T00:55:56.736Z,14.77
2016-07-15T00:56:56.729Z,14.7
2016-07-15T00:57:56.724Z,14.8
2016-07-15T00:58:56.726Z,14.75
2016-07-15T00:59:56.719Z,14.77
2016-07-15T01:00:56.723Z,14.77
2016-07-15T01:01:56.714Z,14.83
2016-07-15T01:02:56.714Z,14.75
2016-07-15T01:03:56.704Z,14.73
2016-07-15T01:04:56.705Z,14.8
2016-07-15T01:05:56.702Z,14.75
2016-07-15T01:06:56.700Z,14.81
2016-07-15T01:07:56.691Z,14.78
2016-07-15T01:08:56.699Z,14.69
2016-07-15T01:09:56.690Z,14.75
2016-07-15T01:10:56.685Z,14.73
2016-07-15T01:11:56.694Z,14.72
2016-07-15T01:12:57.372Z,14.72
2016-07-15T01:13:56.676Z,14.78
2016-07-15T01:14:56.669Z,14.8
2016-07-15T01:15:56.665Z,14.8
2016-07-15T01:16:56.665Z,14.84
2016-07-15T01:17:56.662Z,14.7
2016-07-15T01:18:56.656Z,14.84
2016-07-15T01:19:56.654Z,14.78
2016-07-15T01:20:56.660Z,14.78
2016-07-15T01:21:56.651Z,14.83
2016-07-15T01:22:56.653Z,14.84
2016-07-15T01:23:56.651Z,14.78
2016-07-15T01:24:56.642Z,14.86
2016-07-15T01:25:56.639Z,14.86
2016-07-15T01:26:56.639Z,14.84
2016-07-15T01:27:56.634Z,14.81
2016-07-15T01:28:56.633Z,14.83
2016-07-15T01:29:56.630Z,14.83
2016-07-15T01:30:56.621Z,14.84
2016-07-15T01:31:56.626Z,14.83
2016-07-15T01:32:56.619Z,14.89
2016-07-15T01:33:56.612Z,14.8
2016-07-15T01:34:56.614Z,14.88
2016-07-15T01:35:56.757Z,14.83
2016-07-15T01:36:57.111Z,14.86
2016-07-15T01:37:56.957Z,14.81
2016-07-15T01:38:56.603Z,14.86
2016-07-15T01:39:56.696Z,14.78
2016-07-15T01:40:56.641Z,14.84
2016-07-15T01:41:56.595Z,14.84
2016-07-15T01:42:56.591Z,14.78
2016-07-15T01:43:56.581Z,14.8
2016-07-15T01:44:58.031Z,14.8
2016-07-15T01:46:14.381Z,14.84
2016-07-15T01:46:58.983Z,14.75
2016-07-15T01:47:56.760Z,14.83
2016-07-15T01:48:57.475Z,14.8
2016-07-15T01:49:57.669Z,14.81
2016-07-15T01:50:56.572Z,14.77
2016-07-15T01:51:57.192Z,14.7
2016-07-15T01:52:56.553Z,14.68
2016-07-15T01:53:56.556Z,14.83
2016-07-15T01:54:56.545Z,14.75
2016-07-15T01:56:58.106Z,14.8
2016-07-15T01:57:59.077Z,14.7
2016-07-15T01:58:56.546Z,14.62
2016-07-15T01:59:56.529Z,14.69
2016-07-15T02:00:57.077Z,14.69
2016-07-15T02:01:56.523Z,14.58
2016-07-15T02:02:56.528Z,14.7
2016-07-15T02:03:56.526Z,14.62
2016-07-15T02:04:56.515Z,14.6
2016-07-15T02:05:56.515Z,14.45
2016-07-15T02:06:56.509Z,14.6
2016-07-15T02:07:56.513Z,14.62
2016-07-15T02:08:56.504Z,14.54
2016-07-15T02:09:56.498Z,14.54
2016-07-15T02:10:56.500Z,14.57
2016-07-15T02:11:56.495Z,14.52
2016-07-15T02:12:56.495Z,14.57
2016-07-15T02:13:56.486Z,14.57
2016-07-15T02:14:56.485Z,14.51
2016-07-15T02:15:56.478Z,14.54
2016-07-15T02:16:56.477Z,14.62
2016-07-15T02:17:56.474Z,14.54
2016-07-15T02:18:56.469Z,14.51
2016-07-15T02:19:56.469Z,14.45
2016-07-15T02:20:56.463Z,14.46
2016-07-15T02:21:56.461Z,14.43
2016-07-15T02:22:56.459Z,14.46
2016-07-15T02:23:56.450Z,14.45
2016-07-15T02:24:56.448Z,14.45
2016-07-15T02:25:56.447Z,14.46
2016-07-15T02:26:56.443Z,14.51
2016-07-15T02:27:56.438Z,14.45
2016-07-15T02:28:56.433Z,14.43
2016-07-15T02:29:56.439Z,14.4
2016-07-15T02:30:56.431Z,14.37
2016-07-15T02:31:56.423Z,14.4
2016-07-15T02:32:56.424Z,14.4
2016-07-15T02:33:56.424Z,14.55
2016-07-15T02:34:56.415Z,14.52
2016-07-15T02:35:56.410Z,14.46
2016-07-15T02:36:56.413Z,14.47
2016-07-15T02:37:56.404Z,14.45
2016-07-15T02:38:56.400Z,14.52
2016-07-15T02:39:56.399Z,14.61
2016-07-15T02:40:56.397Z,14.47
2016-07-15T02:41:56.386Z,14.57
2016-07-15T02:42:56.393Z,14.55
2016-07-15T02:43:56.386Z,14.47
2016-07-15T02:44:56.376Z,14.47
2016-07-15T02:45:56.381Z,14.68
2016-07-15T02:46:56.373Z,14.54
2016-07-15T02:47:56.373Z,14.52
2016-07-15T02:48:56.367Z,14.6
2016-07-15T02:49:56.359Z,14.52
2016-07-15T02:50:56.357Z,14.54
2016-07-15T02:51:56.360Z,14.5
2016-07-15T02:52:56.350Z,14.65
2016-07-15T02:53:57.603Z,14.57
2016-07-15T02:55:57.047Z,14.5
2016-07-15T02:56:57.143Z,14.6
2016-07-15T02:57:56.451Z,14.54
2016-07-15T02:58:56.783Z,14.65
2016-07-15T02:59:57.026Z,14.6
2016-07-15T03:00:56.326Z,14.6
2016-07-15T03:01:56.324Z,14.61
2016-07-15T03:02:56.826Z,14.64
2016-07-15T03:04:57.059Z,14.65
2016-07-15T03:05:56.559Z,14.68
2016-07-15T03:06:56.306Z,14.64
2016-07-15T03:07:56.955Z,14.62
2016-07-15T03:08:56.441Z,14.64
2016-07-15T03:09:56.299Z,14.69
2016-07-15T03:10:56.652Z,14.57
2016-07-15T03:11:56.301Z,14.6
2016-07-15T03:12:56.307Z,14.51
2016-07-15T03:13:57.605Z,14.65
2016-07-15T03:14:57.806Z,14.54
2016-07-15T03:15:56.608Z,14.58
2016-07-15T03:16:58.339Z,14.57
2016-07-15T03:17:56.291Z,14.64
2016-07-15T03:18:56.276Z,14.58
2016-07-15T03:19:56.263Z,14.65
2016-07-15T03:20:56.278Z,14.65
2016-07-15T03:21:56.259Z,14.6
2016-07-15T03:22:56.257Z,14.65
2016-07-15T03:23:56.260Z,14.62
2016-07-15T03:24:56.249Z,14.72
2016-07-15T03:25:56.254Z,14.62
2016-07-15T03:26:56.256Z,14.73
2016-07-15T03:27:56.247Z,14.72
2016-07-15T03:28:56.233Z,14.83
2016-07-15T03:29:56.234Z,14.68
2016-07-15T03:30:56.235Z,14.83
2016-07-15T03:31:56.235Z,14.86
2016-07-15T03:32:56.226Z,14.86
2016-07-15T03:33:56.224Z,14.84
2016-07-15T03:34:56.218Z,14.81
2016-07-15T03:35:56.217Z,14.83
2016-07-15T03:36:56.210Z,14.84
2016-07-15T03:37:56.221Z,14.81
2016-07-15T03:38:56.207Z,14.86
2016-07-15T03:39:56.209Z,14.84
2016-07-15T03:40:56.200Z,14.86
2016-07-15T03:41:56.194Z,14.89
2016-07-15T03:42:56.193Z,14.83
2016-07-15T03:43:56.192Z,14.84
2016-07-15T03:44:56.191Z,14.88
2016-07-15T03:45:56.185Z,14.91
2016-07-15T03:46:56.186Z,14.92
2016-07-15T03:47:56.174Z,14.92
2016-07-15T03:48:56.174Z,14.94
2016-07-15T03:49:56.168Z,14.94
2016-07-15T03:50:56.170Z,14.98
2016-07-15T03:51:56.164Z,14.99
2016-07-15T03:52:56.165Z,15.07
2016-07-15T03:53:56.157Z,14.96
2016-07-15T03:54:56.153Z,14.95
2016-07-15T03:55:56.153Z,15.03
2016-07-15T03:56:56.153Z,15.06
2016-07-15T03:57:56.153Z,15.03
2016-07-15T03:58:56.142Z,15.02
2016-07-15T03:59:56.136Z,15.09
2016-07-15T04:00:56.145Z,15.07
2016-07-15T04:01:56.136Z,15.09
2016-07-15T04:02:56.132Z,15.06
2016-07-15T04:03:56.131Z,15.16
2016-07-15T04:04:56.130Z,15.19
2016-07-15T04:05:56.125Z,15.11
2016-07-15T04:06:56.121Z,15.16
2016-07-15T04:07:56.120Z,15.17
2016-07-15T04:08:56.113Z,15.21
2016-07-15T04:09:56.113Z,15.2
2016-07-15T04:10:56.113Z,15.25
2016-07-15T04:12:56.406Z,15.34
2016-07-15T04:13:57.097Z,15.36
2016-07-15T04:14:56.095Z,15.46
2016-07-15T04:16:11.010Z,15.34
2016-07-15T04:16:56.491Z,15.38
2016-07-15T04:17:56.138Z,15.38
2016-07-15T04:18:56.090Z,15.41
2016-07-15T04:19:56.089Z,15.43
2016-07-15T04:20:57.325Z,15.56
2016-07-15T04:21:57.078Z,15.51
2016-07-15T04:24:58.056Z,15.43
2016-07-15T04:25:57.186Z,15.41
2016-07-15T04:26:56.064Z,15.5
2016-07-15T04:27:56.060Z,15.53
2016-07-15T04:28:56.060Z,15.51
2016-07-15T04:29:56.171Z,15.64
2016-07-15T04:30:56.053Z,15.53
2016-07-15T04:31:56.912Z,15.6
2016-07-15T04:32:56.508Z,15.6
2016-07-15T04:33:56.204Z,15.57
2016-07-15T04:34:56.039Z,15.54
2016-07-15T04:35:56.043Z,15.51
2016-07-15T04:36:56.042Z,15.54
2016-07-15T04:37:56.039Z,15.54
2016-07-15T04:38:56.033Z,15.56
2016-07-15T04:39:56.034Z,15.54
2016-07-15T04:40:56.034Z,15.5
2016-07-15T04:41:56.024Z,15.57
2016-07-15T04:42:56.024Z,15.53
2016-07-15T04:43:56.023Z,15.54
2016-07-15T04:44:56.015Z,15.59
2016-07-15T04:45:56.010Z,15.6
2016-07-15T04:46:56.012Z,15.64
2016-07-15T04:47:56.015Z,15.67
2016-07-15T04:48:56.011Z,15.68
2016-07-15T04:49:56.007Z,15.75
2016-07-15T04:50:56.007Z,15.76
2016-07-15T04:51:56.005Z,15.84
2016-07-15T04:52:55.997Z,15.9
2016-07-15T04:53:55.996Z,16
2016-07-15T04:54:55.991Z,15.94
2016-07-15T04:55:55.989Z,16.12
2016-07-15T04:56:55.992Z,16.15
2016-07-15T04:57:55.994Z,16.24
2016-07-15T04:58:55.987Z,16.41
2016-07-15T04:59:55.983Z,16.43
2016-07-15T05:00:55.983Z,16.56
2016-07-15T05:01:55.976Z,16.53
2016-07-15T05:02:55.982Z,16.5
2016-07-15T05:03:55.972Z,16.73
2016-07-15T05:04:55.976Z,16.67
2016-07-15T05:05:55.966Z,16.67
2016-07-15T05:06:55.973Z,16.71
2016-07-15T05:07:55.970Z,16.75
2016-07-15T05:08:55.959Z,16.75
2016-07-15T05:09:55.970Z,16.71
2016-07-15T05:10:55.962Z,16.71
2016-07-15T05:11:55.960Z,16.75
2016-07-15T05:12:55.972Z,16.75
2016-07-15T05:13:55.966Z,16.75
2016-07-15T05:14:55.957Z,16.73
2016-07-15T05:15:55.955Z,16.71
2016-07-15T05:16:55.947Z,16.79
2016-07-15T05:17:55.961Z,16.7
2016-07-15T05:18:55.953Z,16.75
2016-07-15T05:19:55.948Z,16.73
2016-07-15T05:20:55.945Z,16.73
2016-07-15T05:21:55.997Z,16.79
2016-07-15T05:22:55.941Z,16.75
2016-07-15T05:23:55.944Z,16.83
2016-07-15T05:24:55.944Z,16.86
2016-07-15T05:25:55.941Z,16.83
2016-07-15T05:26:55.941Z,16.78
2016-07-15T05:27:55.941Z,16.76
2016-07-15T05:28:55.937Z,16.85
2016-07-15T05:29:55.933Z,16.81
2016-07-15T05:30:56.080Z,16.89
2016-07-15T05:31:55.930Z,16.91
2016-07-15T05:32:56.434Z,16.98
2016-07-15T05:33:55.928Z,17.03
2016-07-15T05:34:55.922Z,17.03
2016-07-15T05:35:55.926Z,17.11
2016-07-15T05:36:55.925Z,17.06
2016-07-15T05:37:55.920Z,17.14
2016-07-15T05:38:55.921Z,17.16
2016-07-15T05:39:56.266Z,17.08
2016-07-15T05:42:56.601Z,17.11
2016-07-15T05:43:56.738Z,17.23
2016-07-15T05:44:56.061Z,17.23
2016-07-15T05:45:56.894Z,17.21
2016-07-15T05:46:55.905Z,17.14
2016-07-15T05:47:55.906Z,17.16
2016-07-15T05:48:55.908Z,17.11
2016-07-15T05:50:56.292Z,17.14
2016-07-15T05:51:57.066Z,17.11
2016-07-15T05:52:55.906Z,17.22
2016-07-15T05:53:55.896Z,17.25
2016-07-15T05:54:56.930Z,17.25
2016-07-15T05:55:55.893Z,17.28
2016-07-15T05:56:55.900Z,17.28
2016-07-15T05:57:55.891Z,17.22
2016-07-15T05:58:55.895Z,17.22
2016-07-15T05:59:55.895Z,17.08
2016-07-15T06:00:55.887Z,17.14
2016-07-15T06:01:55.889Z,17.08
2016-07-15T06:02:55.883Z,17.12
2016-07-15T06:03:55.887Z,17.11
2016-07-15T06:04:55.888Z,17.12
2016-07-15T06:05:55.883Z,17.11
2016-07-15T06:06:55.880Z,17.15
2016-07-15T06:07:55.882Z,17.07
2016-07-15T06:08:55.884Z,17.18
2016-07-15T06:09:55.874Z,17.15
2016-07-15T06:10:55.878Z,17.07
2016-07-15T06:11:55.872Z,17.23
2016-07-15T06:12:55.874Z,17.36
2016-07-15T06:13:55.870Z,17.26
2016-07-15T06:14:55.868Z,17.34
2016-07-15T06:15:55.869Z,17.25
2016-07-15T06:16:55.867Z,17.15
2016-07-15T06:17:55.865Z,17.01
2016-07-15T06:18:55.869Z,16.93
2016-07-15T06:19:55.863Z,16.86
2016-07-15T06:20:55.864Z,16.78
2016-07-15T06:21:55.862Z,16.81
2016-07-15T06:22:55.862Z,16.61
2016-07-15T06:23:55.861Z,16.5
2016-07-15T06:24:55.853Z,16.5
2016-07-15T06:25:55.855Z,16.46
2016-07-15T06:26:55.847Z,16.39
2016-07-15T06:27:55.851Z,16.39
2016-07-15T06:28:55.851Z,16.46
2016-07-15T06:29:55.850Z,16.42
2016-07-15T06:30:55.845Z,16.39
2016-07-15T06:31:55.842Z,16.42
2016-07-15T06:32:55.853Z,16.48
2016-07-15T06:33:55.845Z,16.63
2016-07-15T06:34:55.843Z,16.73
2016-07-15T06:35:55.840Z,16.85
2016-07-15T06:36:55.834Z,17
2016-07-15T06:37:55.837Z,17.16
2016-07-15T06:38:55.838Z,17.3
2016-07-15T06:39:55.830Z,17.44
2016-07-15T06:40:55.829Z,17.66
2016-07-15T06:41:55.834Z,17.77
2016-07-15T06:42:55.830Z,18
2016-07-15T06:43:55.826Z,18.18
2016-07-15T06:44:55.829Z,18.41
2016-07-15T06:45:55.827Z,18.58
2016-07-15T06:46:55.828Z,18.81
2016-07-15T06:47:55.831Z,18.98
2016-07-15T06:48:56.024Z,19.07
2016-07-15T06:50:10.756Z,19.26
2016-07-15T06:50:55.978Z,19.39
2016-07-15T06:51:55.834Z,19.39
2016-07-15T06:52:55.822Z,19.47
2016-07-15T06:53:55.827Z,19.43
2016-07-15T06:54:55.833Z,19.31
2016-07-15T06:55:55.830Z,19.13
2016-07-15T06:56:55.881Z,19.11
2016-07-15T06:57:55.929Z,19.08
2016-07-15T06:58:55.985Z,19.13
2016-07-15T06:59:57.412Z,18.95
2016-07-15T07:00:56.616Z,18.99
2016-07-15T07:01:57.804Z,18.98
2016-07-15T07:02:55.836Z,18.88
2016-07-15T07:03:55.837Z,18.78
2016-07-15T07:04:56.192Z,18.78
2016-07-15T07:05:55.833Z,18.73
2016-07-15T07:06:55.836Z,18.76
2016-07-15T07:07:55.839Z,18.78
2016-07-15T07:08:57.274Z,18.82
2016-07-15T07:09:57.265Z,18.88
2016-07-15T07:10:57.053Z,18.82
2016-07-15T07:11:55.833Z,18.95
2016-07-15T07:12:55.837Z,19.1
2016-07-15T07:13:56.920Z,19.13
2016-07-15T07:14:55.839Z,19.36
2016-07-15T07:15:55.834Z,19.43
2016-07-15T07:16:55.834Z,19.46
2016-07-15T07:17:55.838Z,19.47
2016-07-15T07:18:56.539Z,19.55
2016-07-15T07:19:55.844Z,19.58
2016-07-15T07:20:55.836Z,19.61
2016-07-15T07:21:55.940Z,19.68
2016-07-15T07:22:55.848Z,19.66
2016-07-15T07:23:55.839Z,19.74
2016-07-15T07:24:55.845Z,19.86
2016-07-15T07:25:55.840Z,19.99
2016-07-15T07:26:55.851Z,20.06
2016-07-15T07:27:55.841Z,20.08
2016-07-15T07:28:55.846Z,20.31
2016-07-15T07:29:55.850Z,20.36
2016-07-15T07:30:55.851Z,20.42
2016-07-15T07:31:55.851Z,20.59
2016-07-15T07:32:55.851Z,20.73
2016-07-15T07:33:56.120Z,20.94
2016-07-15T07:34:55.854Z,21.13
2016-07-15T07:35:55.861Z,21.27
2016-07-15T07:36:55.856Z,21.37
2016-07-15T07:37:55.856Z,21.44
2016-07-15T07:38:55.862Z,21.35
2016-07-15T07:39:55.866Z,21.4
2016-07-15T07:40:55.867Z,21.49
2016-07-15T07:41:55.870Z,21.61
2016-07-15T07:42:55.876Z,21.59
2016-07-15T07:43:55.878Z,21.72
2016-07-15T07:44:55.877Z,21.79
2016-07-15T07:45:55.880Z,21.72
2016-07-15T07:46:55.884Z,21.8
2016-07-15T07:47:55.887Z,21.82
2016-07-15T07:48:55.895Z,21.79
2016-07-15T07:49:55.895Z,21.92
2016-07-15T07:50:55.904Z,22
2016-07-15T07:51:55.904Z,21.94
2016-07-15T07:52:55.910Z,21.94
2016-07-15T07:53:55.912Z,22.06
2016-07-15T07:54:55.914Z,22
2016-07-15T07:55:55.920Z,22.12
2016-07-15T07:56:55.919Z,22.15
2016-07-15T07:57:55.925Z,22.21
2016-07-15T07:58:55.925Z,22.35
2016-07-15T07:59:55.930Z,22.37
2016-07-15T08:00:55.938Z,22.39
2016-07-15T08:01:55.937Z,22.33
2016-07-15T08:02:55.944Z,22.35
2016-07-15T08:03:55.949Z,22.33
2016-07-15T08:04:55.947Z,22.35
2016-07-15T08:05:55.954Z,22.39
2016-07-15T08:06:56.707Z,22.51
2016-07-15T08:07:56.464Z,22.52
2016-07-15T08:08:56.515Z,22.58
2016-07-15T08:09:56.470Z,22.64
2016-07-15T08:10:56.075Z,22.79
2016-07-15T08:11:55.977Z,22.88
2016-07-15T08:12:55.979Z,23.09
2016-07-15T08:13:56.085Z,23.2
2016-07-15T08:14:55.990Z,23.4
2016-07-15T08:15:56.852Z,23.51
2016-07-15T08:16:56.400Z,23.87
2016-07-15T08:17:57.458Z,24.25
2016-07-15T08:18:57.899Z,24.42
2016-07-15T08:19:57.478Z,24.67
2016-07-15T08:20:56.323Z,24.95
2016-07-15T08:21:56.730Z,25.13
2016-07-15T08:22:56.575Z,25.15
2016-07-15T08:23:56.046Z,25.03
2016-07-15T08:24:56.202Z,24.99
2016-07-15T08:25:56.065Z,24.8
2016-07-15T08:26:57.558Z,24.62
2016-07-15T08:27:56.693Z,24.55
2016-07-15T08:28:56.206Z,24.42
2016-07-15T08:29:56.091Z,24.3
2016-07-15T08:30:56.859Z,24.21
2016-07-15T08:31:56.104Z,23.94
2016-07-15T08:32:56.929Z,23.68
2016-07-15T08:33:56.115Z,23.51
2016-07-15T08:34:56.237Z,23.48
2016-07-15T08:35:56.128Z,23.5
2016-07-15T08:36:56.136Z,23.47
2016-07-15T08:37:56.142Z,23.38
2016-07-15T08:38:56.142Z,23.23
2016-07-15T08:39:56.151Z,23.2
2016-07-15T08:40:56.153Z,23
2016-07-15T08:41:56.158Z,22.86
2016-07-15T08:42:56.189Z,22.86
2016-07-15T08:43:56.168Z,22.79
2016-07-15T08:44:56.182Z,22.57
2016-07-15T08:45:56.188Z,22.49
2016-07-15T08:46:56.181Z,22.49
2016-07-15T08:47:56.194Z,22.4
2016-07-15T08:48:56.193Z,22.33
2016-07-15T08:49:56.205Z,22.22
2016-07-15T08:50:56.196Z,22.07
2016-07-15T08:51:56.207Z,22.02
2016-07-15T08:52:56.218Z,22.09
2016-07-15T08:53:56.219Z,21.98
2016-07-15T08:54:56.219Z,21.79
2016-07-15T08:55:56.229Z,21.67
2016-07-15T08:56:56.220Z,21.52
2016-07-15T08:57:56.229Z,21.43
2016-07-15T08:58:56.230Z,21.35
2016-07-15T08:59:56.233Z,21.21
2016-07-15T09:00:56.242Z,21.17
2016-07-15T09:01:56.239Z,21.12
2016-07-15T09:02:56.236Z,21.03
2016-07-15T09:03:56.246Z,21.01
2016-07-15T09:04:56.244Z,20.89
2016-07-15T09:05:56.250Z,20.8
2016-07-15T09:06:56.250Z,20.69
2016-07-15T09:07:56.249Z,20.69
2016-07-15T09:08:56.257Z,20.73
2016-07-15T09:09:56.257Z,20.69
2016-07-15T09:10:56.257Z,20.72
2016-07-15T09:11:56.258Z,20.72
2016-07-15T09:12:56.261Z,20.69
2016-07-15T09:13:56.264Z,20.74
2016-07-15T09:14:56.272Z,20.79
2016-07-15T09:15:56.268Z,20.95
2016-07-15T09:16:56.273Z,20.99
2016-07-15T09:17:56.279Z,21.07
2016-07-15T09:18:56.272Z,21.13
2016-07-15T09:19:56.273Z,21.21
2016-07-15T09:20:56.293Z,21.35
2016-07-15T09:21:56.335Z,21.49
2016-07-15T09:22:56.282Z,21.54
2016-07-15T09:23:56.289Z,21.61
2016-07-15T09:24:57.094Z,21.75
2016-07-15T09:25:56.788Z,21.75
2016-07-15T09:26:58.095Z,21.91
2016-07-15T09:27:56.297Z,21.88
2016-07-15T09:28:56.542Z,21.96
2016-07-15T09:29:56.298Z,21.9
2016-07-15T09:30:56.449Z,21.98
2016-07-15T09:31:56.403Z,21.91
2016-07-15T09:32:56.299Z,22.06
2016-07-15T09:33:56.311Z,22.07
2016-07-15T09:35:11.830Z,22.1
2016-07-15T09:35:58.881Z,22.25
2016-07-15T09:36:58.486Z,22.33
2016-07-15T09:37:56.621Z,22.51
2016-07-15T09:38:56.918Z,22.49
2016-07-15T09:39:57.769Z,22.65
2016-07-15T09:40:56.329Z,22.64
2016-07-15T09:41:56.328Z,22.73
2016-07-15T09:42:56.337Z,22.65
2016-07-15T09:43:56.336Z,22.51
2016-07-15T09:44:57.858Z,22.52
2016-07-15T09:45:57.087Z,22.42
2016-07-15T09:46:57.670Z,22.45
2016-07-15T09:47:56.352Z,22.37
2016-07-15T09:48:58.104Z,22.2
2016-07-15T09:49:56.829Z,22.14
2016-07-15T09:50:57.209Z,22.02
2016-07-15T09:51:56.365Z,21.91
2016-07-15T09:52:56.371Z,21.67
2016-07-15T09:53:56.363Z,21.49
2016-07-15T09:54:56.367Z,21.38
2016-07-15T09:55:56.372Z,21.31
2016-07-15T09:56:56.375Z,21.1
2016-07-15T09:57:56.378Z,21.09
2016-07-15T09:58:56.380Z,20.98
2016-07-15T09:59:56.383Z,20.95
2016-07-15T10:00:56.385Z,20.84
2016-07-15T10:01:56.388Z,20.73
2016-07-15T10:02:56.388Z,20.67
2016-07-15T10:03:56.389Z,20.55
2016-07-15T10:04:56.392Z,20.48
2016-07-15T10:05:56.397Z,20.48
2016-07-15T10:06:56.392Z,20.42
2016-07-15T10:07:56.399Z,20.31
2016-07-15T10:08:56.408Z,20.26
2016-07-15T10:09:56.408Z,20.24
2016-07-15T10:10:56.406Z,20.18
2016-07-15T10:11:56.401Z,20.06
2016-07-15T10:12:56.408Z,20.05
2016-07-15T10:13:56.409Z,20.06
2016-07-15T10:14:56.403Z,20.03
2016-07-15T10:15:56.406Z,19.92
2016-07-15T10:16:56.415Z,19.94
2016-07-15T10:17:56.414Z,19.87
2016-07-15T10:18:56.410Z,19.84
2016-07-15T10:19:56.416Z,19.78
2016-07-15T10:20:56.414Z,19.95
2016-07-15T10:21:56.415Z,20.06
2016-07-15T10:22:56.411Z,20.06
2016-07-15T10:23:56.416Z,20.26
2016-07-15T10:24:56.417Z,20.38
2016-07-15T10:25:56.412Z,20.61
2016-07-15T10:26:56.421Z,20.69
2016-07-15T10:27:56.419Z,20.89
2016-07-15T10:28:56.435Z,21.1
2016-07-15T10:29:56.422Z,21.14
2016-07-15T10:30:56.425Z,21.21
2016-07-15T10:31:56.426Z,21.27
2016-07-15T10:32:56.425Z,21.19
2016-07-15T10:33:56.423Z,21.25
2016-07-15T10:34:56.424Z,21.1
2016-07-15T10:35:56.429Z,21.01
2016-07-15T10:36:57.126Z,20.95
2016-07-15T10:37:56.439Z,20.82
2016-07-15T10:38:56.432Z,20.67
2016-07-15T10:39:56.439Z,20.57
2016-07-15T10:40:56.437Z,20.43
2016-07-15T10:41:56.444Z,20.36
2016-07-15T10:42:56.440Z,20.31
2016-07-15T10:43:56.491Z,20.16
2016-07-15T10:44:57.045Z,20.17
2016-07-15T10:46:11.462Z,20.05
2016-07-15T10:46:56.993Z,19.92
2016-07-15T10:47:56.942Z,19.86
2016-07-15T10:48:56.447Z,19.78
2016-07-15T10:49:56.445Z,19.63
2016-07-15T10:50:56.446Z,19.5
2016-07-15T10:51:56.445Z,19.51
2016-07-15T10:53:12.071Z,19.44
2016-07-15T10:53:57.966Z,19.36
2016-07-15T10:54:59.722Z,19.4
2016-07-15T10:55:58.424Z,19.43
2016-07-15T10:56:56.450Z,19.39
2016-07-15T10:57:56.757Z,19.37
2016-07-15T10:58:56.457Z,19.46
2016-07-15T10:59:57.019Z,19.39
2016-07-15T11:00:56.453Z,19.43
2016-07-15T11:01:56.631Z,19.48
2016-07-15T11:02:56.451Z,19.5
2016-07-15T11:03:57.775Z,19.59
2016-07-15T11:04:57.366Z,19.68
2016-07-15T11:05:58.942Z,19.65
2016-07-15T11:06:56.884Z,19.74
2016-07-15T11:07:56.719Z,19.88
2016-07-15T11:08:56.458Z,19.99
2016-07-15T11:09:56.492Z,20.05
2016-07-15T11:10:56.465Z,20.2
2016-07-15T11:11:56.459Z,20.28
2016-07-15T11:12:56.460Z,20.47
2016-07-15T11:13:56.454Z,20.73
2016-07-15T11:14:56.462Z,21.01
2016-07-15T11:15:56.460Z,21.21
2016-07-15T11:16:56.462Z,21.59
2016-07-15T11:17:56.457Z,21.92
2016-07-15T11:18:56.464Z,22.21
2016-07-15T11:19:56.464Z,22.51
2016-07-15T11:20:56.467Z,22.73
2016-07-15T11:21:56.470Z,22.95
2016-07-15T11:22:56.471Z,23.31
2016-07-15T11:23:56.477Z,23.53
2016-07-15T11:24:56.476Z,23.8
2016-07-15T11:25:56.482Z,23.95
2016-07-15T11:26:56.489Z,24.09
2016-07-15T11:27:56.485Z,24.1
2016-07-15T11:28:56.494Z,24.08
2016-07-15T11:29:56.498Z,24.1
2016-07-15T11:30:56.496Z,24.16
2016-07-15T11:31:56.501Z,24.08
2016-07-15T11:32:56.510Z,23.97
2016-07-15T11:33:56.512Z,23.78
2016-07-15T11:34:56.514Z,23.63
2016-07-15T11:35:56.517Z,23.48
2016-07-15T11:36:56.519Z,23.35
2016-07-15T11:37:56.530Z,23.16
2016-07-15T11:38:56.534Z,23.17
2016-07-15T11:39:56.535Z,23.09
2016-07-15T11:40:56.539Z,23.04
2016-07-15T11:41:56.540Z,23.05
2016-07-15T11:42:56.554Z,22.95
2016-07-15T11:43:56.554Z,23.04
2016-07-15T11:44:56.553Z,22.97
2016-07-15T11:45:56.557Z,22.9
2016-07-15T11:46:56.567Z,22.7
2016-07-15T11:47:56.564Z,22.64
2016-07-15T11:48:56.566Z,22.52
2016-07-15T11:49:56.582Z,22.3
2016-07-15T11:50:56.573Z,22.2
2016-07-15T11:51:56.577Z,21.96
2016-07-15T11:52:56.579Z,21.77
2016-07-15T11:53:56.585Z,21.53
2016-07-15T11:54:56.590Z,21.43
2016-07-15T11:55:56.591Z,21.28
2016-07-15T11:56:56.586Z,21.17
2016-07-15T11:57:56.596Z,21.09
2016-07-15T11:58:56.599Z,21.06
2016-07-15T11:59:56.599Z,20.82
2016-07-15T12:00:56.597Z,20.7
2016-07-15T12:02:57.301Z,20.55
2016-07-15T12:03:57.407Z,20.51
2016-07-15T12:04:56.658Z,20.33
2016-07-15T12:05:57.310Z,20.26
2016-07-15T12:06:56.615Z,20.16
2016-07-15T12:07:56.611Z,19.88
2016-07-15T12:08:56.612Z,19.86
2016-07-15T12:09:56.614Z,19.73
2016-07-15T12:11:12.582Z,19.74
2016-07-15T12:11:57.417Z,19.66
2016-07-15T12:13:59.430Z,19.47
2016-07-15T12:14:57.948Z,19.41
2016-07-15T12:15:57.518Z,19.41
2016-07-15T12:16:57.613Z,19.36
2016-07-15T12:17:58.183Z,19.41
2016-07-15T12:18:56.621Z,19.29
2016-07-15T12:19:56.624Z,19.37
2016-07-15T12:20:56.616Z,19.39
2016-07-15T12:21:57.338Z,19.4
2016-07-15T12:22:58.172Z,19.37
2016-07-15T12:23:57.354Z,19.32
2016-07-15T12:24:56.619Z,19.32
2016-07-15T12:25:57.400Z,19.41
2016-07-15T12:26:57.754Z,19.4
2016-07-15T12:27:57.015Z,19.43
2016-07-15T12:28:56.623Z,19.55
2016-07-15T12:29:56.627Z,19.48
2016-07-15T12:30:56.625Z,19.58
2016-07-15T12:31:56.622Z,19.65
2016-07-15T12:32:56.624Z,19.71
2016-07-15T12:33:56.623Z,19.73
2016-07-15T12:34:56.624Z,19.81
2016-07-15T12:35:56.622Z,19.91
2016-07-15T12:36:56.623Z,19.94
2016-07-15T12:37:56.623Z,19.88
2016-07-15T12:38:56.624Z,20.03
2016-07-15T12:39:56.626Z,20.02
2016-07-15T12:40:56.638Z,20.1
2016-07-15T12:41:56.624Z,20.06
2016-07-15T12:42:56.626Z,20.01
2016-07-15T12:43:56.630Z,20.03
2016-07-15T12:44:56.627Z,19.99
2016-07-15T12:45:56.628Z,19.95
2016-07-15T12:46:56.630Z,19.91
2016-07-15T12:47:56.626Z,19.84
2016-07-15T12:48:56.626Z,19.76
2016-07-15T12:49:56.622Z,19.63
2016-07-15T12:50:56.629Z,19.55
2016-07-15T12:51:56.627Z,19.5
2016-07-15T12:52:56.634Z,19.4
2016-07-15T12:53:56.639Z,19.32
2016-07-15T12:54:56.636Z,19.28
2016-07-15T12:55:56.628Z,19.18
2016-07-15T12:56:56.627Z,19.25
2016-07-15T12:57:56.639Z,19.18
2016-07-15T12:58:56.632Z,19.13
2016-07-15T12:59:56.630Z,19.13
2016-07-15T13:00:56.634Z,19.36
2016-07-15T13:01:56.631Z,19.37
2016-07-15T13:02:56.634Z,19.41
2016-07-15T13:03:56.631Z,19.51
2016-07-15T13:04:56.632Z,19.56
2016-07-15T13:05:56.631Z,19.61
2016-07-15T13:06:56.635Z,19.73
2016-07-15T13:07:56.635Z,19.66
2016-07-15T13:08:56.634Z,19.66